createdAt,value
2024-01-20T00:00:38.583Z,1.70
2024-01-20T00:04:20.970Z,1.60
2024-01-20T00:08:03.695Z,1.70
2024-01-20T00:11:45.655Z,1.70
2024-01-20T00:15:28.238Z,1.80
2024-01-20T00:19:10.827Z,1.80
2024-01-20T00:22:53.416Z,1.90
2024-01-20T00:26:35.988Z,1.90
2024-01-20T00:30:22.340Z,1.90
2024-01-20T00:34:04.640Z,1.90
2024-01-20T00:37:46.775Z,1.90
2024-01-20T00:41:28.876Z,1.80
2024-01-20T00:45:11.119Z,1.70
2024-01-20T00:48:53.311Z,1.60
2024-01-20T00:52:35.434Z,1.50
2024-01-20T00:56:17.707Z,1.40
2024-01-20T00:59:59.777Z,1.30
2024-01-20T01:03:44.140Z,1.20
2024-01-20T01:07:26.195Z,1.10
2024-01-20T01:11:08.242Z,1.00
2024-01-20T01:14:50.484Z,0.80
2024-01-20T01:18:33.612Z,0.70
2024-01-20T01:22:15.569Z,0.70
2024-01-20T01:25:57.846Z,0.80
2024-01-20T01:29:39.929Z,1.10
2024-01-20T01:33:22.011Z,1.30
2024-01-20T01:37:04.137Z,1.50
2024-01-20T01:40:46.122Z,1.60
2024-01-20T01:44:28.149Z,1.80
2024-01-20T01:48:10.447Z,1.90
2024-01-20T01:51:53.520Z,2.00
2024-01-20T01:55:36.086Z,2.10
2024-01-20T01:59:18.164Z,2.10
2024-01-20T02:03:00.202Z,2.20
2024-01-20T02:06:42.681Z,2.30
2024-01-20T02:10:25.901Z,2.40
2024-01-20T02:14:08.320Z,2.40
2024-01-20T02:17:54.919Z,2.50
2024-01-20T02:21:37.832Z,2.60
2024-01-20T02:25:20.327Z,2.60
2024-01-20T02:29:02.411Z,2.70
2024-01-20T02:32:44.542Z,2.80
2024-01-20T02:36:26.621Z,2.80
2024-01-20T02:40:09.348Z,2.90
2024-01-20T02:43:54.583Z,2.90
2024-01-20T02:47:36.645Z,3.00
2024-01-20T02:51:18.651Z,3.00
2024-01-20T02:55:00.712Z,3.10
2024-01-20T02:58:43.302Z,3.00
2024-01-20T03:02:25.291Z,3.10
2024-01-20T03:06:07.562Z,3.10
2024-01-20T03:09:52.259Z,3.10
2024-01-20T03:13:34.206Z,3.20
2024-01-20T03:17:16.276Z,3.20
2024-01-20T03:20:58.310Z,3.20
2024-01-20T03:24:43.115Z,3.20
2024-01-20T03:28:25.405Z,3.20
2024-01-20T03:32:07.555Z,3.20
2024-01-20T03:35:49.664Z,3.20
2024-01-20T03:39:32.004Z,3.30
2024-01-20T03:43:14.049Z,3.30
2024-01-20T03:46:56.056Z,3.30
2024-01-20T03:50:38.182Z,3.30
2024-01-20T03:54:20.285Z,3.40
2024-01-20T03:58:02.485Z,3.40
2024-01-20T04:01:44.530Z,3.40
2024-01-20T04:05:26.567Z,3.40
2024-01-20T04:09:08.681Z,3.40
2024-01-20T04:12:50.665Z,3.40
2024-01-20T04:16:33.198Z,3.50
2024-01-20T04:20:15.259Z,3.50
2024-01-20T04:23:57.289Z,3.50
2024-01-20T04:27:41.846Z,3.50
2024-01-20T04:31:24.385Z,3.50
2024-01-20T04:35:07.414Z,3.50
2024-01-20T04:38:49.366Z,3.50
2024-01-20T04:42:31.657Z,3.50
2024-01-20T04:46:13.710Z,3.50
2024-01-20T04:49:55.691Z,3.50
2024-01-20T04:53:37.676Z,3.50
2024-01-20T04:57:22.171Z,3.40
2024-01-20T05:01:04.497Z,3.40
2024-01-20T05:04:46.620Z,3.40
2024-01-20T05:08:28.603Z,3.40
2024-01-20T05:12:10.707Z,3.40
2024-01-20T05:15:54.829Z,3.40
2024-01-20T05:19:40.418Z,3.40
2024-01-20T05:23:22.512Z,3.40
2024-01-20T05:27:04.951Z,3.40
2024-01-20T05:30:47.012Z,3.40
2024-01-20T05:34:29.087Z,3.40
2024-01-20T05:38:11.147Z,3.40
2024-01-20T05:41:55.553Z,3.40
2024-01-20T05:45:37.631Z,3.40
2024-01-20T05:49:20.078Z,3.50
2024-01-20T05:53:02.208Z,3.50
2024-01-20T05:56:44.519Z,3.50
2024-01-20T06:00:26.592Z,3.60
2024-01-20T06:04:08.661Z,3.70
2024-01-20T06:07:50.625Z,3.80
2024-01-20T06:11:34.101Z,3.80
2024-01-20T06:15:16.490Z,3.90
2024-01-20T06:18:58.631Z,4.00
2024-01-20T06:22:40.633Z,4.10
2024-01-20T06:26:22.623Z,4.20
2024-01-20T06:30:05.200Z,4.20
2024-01-20T06:33:48.556Z,4.30
2024-01-20T06:37:30.600Z,4.30
2024-01-20T06:41:12.603Z,4.30
2024-01-20T06:44:57.214Z,4.30
2024-01-20T06:48:40.008Z,4.30
2024-01-20T06:52:22.779Z,4.30
2024-01-20T06:56:05.516Z,4.40
2024-01-20T06:59:47.468Z,4.40
2024-01-20T07:03:29.462Z,4.30
2024-01-20T07:07:11.468Z,4.40
2024-01-20T07:10:53.457Z,4.30
2024-01-20T07:14:36.652Z,4.20
2024-01-20T07:18:18.916Z,4.20
2024-01-20T07:22:01.007Z,4.10
2024-01-20T07:25:42.981Z,4.10
2024-01-20T07:29:25.301Z,4.00
2024-01-20T07:33:07.409Z,4.00
2024-01-20T07:36:49.445Z,4.00
2024-01-20T07:40:31.458Z,4.00
2024-01-20T07:44:13.432Z,3.90
2024-01-20T07:47:55.546Z,3.90
2024-01-20T07:51:37.675Z,3.90
2024-01-20T07:55:19.812Z,3.90
2024-01-20T07:59:01.860Z,3.90
2024-01-20T08:02:43.880Z,3.90
2024-01-20T08:06:28.235Z,3.90
2024-01-20T08:10:10.736Z,3.90
2024-01-20T08:13:52.821Z,3.90
2024-01-20T08:17:34.919Z,3.90
2024-01-20T08:21:21.810Z,3.90
2024-01-20T08:25:05.972Z,3.90
2024-01-20T08:28:47.979Z,4.00
2024-01-20T08:32:30.255Z,4.00
2024-01-20T08:36:12.318Z,4.10
2024-01-20T08:39:54.399Z,4.10
2024-01-20T08:43:41.851Z,4.20
2024-01-20T08:47:23.883Z,4.30
2024-01-20T08:51:06.466Z,4.30
2024-01-20T08:54:48.555Z,4.30
2024-01-20T08:58:30.676Z,4.40
2024-01-20T09:02:12.753Z,4.40
2024-01-20T09:05:54.765Z,4.40
2024-01-20T09:09:36.876Z,4.40
2024-01-20T09:13:19.110Z,4.50
2024-01-20T09:17:01.113Z,4.50
2024-01-20T09:20:43.710Z,4.50
2024-01-20T09:24:25.987Z,4.60
2024-01-20T09:28:08.047Z,4.60
2024-01-20T09:31:50.011Z,4.70
2024-01-20T09:35:32.714Z,4.70
2024-01-20T09:39:14.805Z,4.80
2024-01-20T09:42:57.157Z,4.80
2024-01-20T09:46:40.039Z,4.90
2024-01-20T09:50:22.189Z,5.00
2024-01-20T09:54:15.882Z,5.10
2024-01-20T09:57:59.088Z,5.10
2024-01-20T10:01:43.241Z,5.20
2024-01-20T10:05:26.082Z,5.30
2024-01-20T10:09:08.157Z,5.40
2024-01-20T10:12:56.656Z,5.50
2024-01-20T10:16:42.106Z,5.60
2024-01-20T10:20:26.002Z,5.70
2024-01-20T10:24:09.291Z,5.70
2024-01-20T10:27:51.805Z,5.80
2024-01-20T10:31:33.833Z,5.90
2024-01-20T10:35:16.400Z,6.00
2024-01-20T10:39:02.501Z,6.20
2024-01-20T10:42:46.903Z,6.20
2024-01-20T10:46:32.558Z,6.30
2024-01-20T10:50:14.912Z,6.40
2024-01-20T10:53:58.447Z,6.40
2024-01-20T10:57:40.721Z,6.40
2024-01-20T11:01:23.630Z,6.50
2024-01-20T11:05:24.710Z,6.50
2024-01-20T11:09:09.831Z,6.50
2024-01-20T11:13:04.636Z,6.60
2024-01-20T11:16:46.637Z,6.60
2024-01-20T11:20:31.299Z,6.70
2024-01-20T11:24:15.982Z,6.80
2024-01-20T11:28:01.062Z,6.90
2024-01-20T11:31:49.868Z,7.00
2024-01-20T11:35:32.088Z,7.10
2024-01-20T11:39:16.224Z,7.20
2024-01-20T11:43:08.249Z,7.20
2024-01-20T11:46:50.333Z,7.30
2024-01-20T11:50:32.359Z,7.40
2024-01-20T11:54:14.428Z,7.50
2024-01-20T11:57:56.551Z,7.60
2024-01-20T12:01:38.805Z,7.70
2024-01-20T12:05:21.693Z,7.70
2024-01-20T12:09:05.344Z,7.80
2024-01-20T12:12:47.422Z,7.80
2024-01-20T12:16:29.518Z,7.90
2024-01-20T12:20:12.014Z,7.90
2024-01-20T12:23:54.587Z,8.00
2024-01-20T12:27:36.796Z,8.10
2024-01-20T12:31:21.623Z,8.20
2024-01-20T12:35:05.477Z,8.20
2024-01-20T12:38:47.533Z,8.20
2024-01-20T12:42:29.544Z,8.30
2024-01-20T12:46:11.610Z,8.30
2024-01-20T12:49:53.732Z,8.30
2024-01-20T12:53:36.080Z,8.30
2024-01-20T12:57:18.595Z,8.20
2024-01-20T13:01:00.657Z,8.20
2024-01-20T13:04:43.752Z,8.10
2024-01-20T13:08:25.851Z,8.00
2024-01-20T13:12:08.228Z,8.00
2024-01-20T13:15:50.340Z,8.00
2024-01-20T13:19:32.476Z,8.00
2024-01-20T13:23:14.502Z,8.00
2024-01-20T13:26:56.588Z,8.00
2024-01-20T13:30:38.583Z,8.10
2024-01-20T13:34:20.676Z,8.00
2024-01-20T13:38:03.115Z,8.00
2024-01-20T13:41:45.167Z,8.00
2024-01-20T13:45:27.255Z,8.00
2024-01-20T13:49:11.075Z,8.00
2024-01-20T13:52:56.870Z,8.00
2024-01-20T13:56:38.863Z,7.90
2024-01-20T14:00:22.199Z,7.80
2024-01-20T14:04:04.457Z,7.80
2024-01-20T14:07:46.507Z,7.80
2024-01-20T14:11:29.946Z,7.70
2024-01-20T14:15:12.037Z,7.60
2024-01-20T14:18:54.931Z,7.60
2024-01-20T14:22:36.980Z,7.60
2024-01-20T14:26:18.994Z,7.60
2024-01-20T14:30:01.163Z,7.50
2024-01-20T14:33:43.458Z,7.60
2024-01-20T14:37:25.993Z,7.50
2024-01-20T14:41:08.197Z,7.50
2024-01-20T14:44:50.325Z,7.50
2024-01-20T14:48:32.536Z,7.50
2024-01-20T14:52:14.987Z,7.40
2024-01-20T14:55:57.010Z,7.50
2024-01-20T14:59:39.113Z,7.40
2024-01-20T15:03:21.138Z,7.40
2024-01-20T15:07:05.137Z,7.40
2024-01-20T15:10:49.573Z,7.40
2024-01-20T15:14:31.736Z,7.40
2024-01-20T15:18:13.894Z,7.40
2024-01-20T15:21:56.049Z,7.30
2024-01-20T15:25:38.325Z,7.30
2024-01-20T15:29:20.264Z,7.30
2024-01-20T15:33:02.430Z,7.30
2024-01-20T15:36:45.140Z,7.20
2024-01-20T15:40:27.238Z,7.20
2024-01-20T15:44:11.620Z,7.20
2024-01-20T15:47:54.400Z,7.20
2024-01-20T15:51:39.612Z,7.10
2024-01-20T15:55:21.593Z,7.10
2024-01-20T15:59:03.612Z,7.10
2024-01-20T16:02:45.697Z,7.10
2024-01-20T16:06:27.820Z,7.10
2024-01-20T16:10:10.218Z,7.00
2024-01-20T16:13:52.249Z,7.00
2024-01-20T16:17:34.347Z,7.00
2024-01-20T16:21:25.865Z,7.00
2024-01-20T16:25:08.113Z,7.00
2024-01-20T16:28:50.382Z,6.90
2024-01-20T16:32:32.564Z,6.90
2024-01-20T16:36:17.246Z,6.90
2024-01-20T16:40:01.518Z,6.90
2024-01-20T16:43:43.539Z,6.80
2024-01-20T16:47:25.717Z,6.80
2024-01-20T16:51:15.060Z,6.80
2024-01-20T16:55:14.418Z,6.70
2024-01-20T16:59:00.063Z,6.70
2024-01-20T17:02:42.060Z,6.70
2024-01-20T17:06:24.104Z,6.60
2024-01-20T17:10:06.662Z,6.50
2024-01-20T17:13:51.545Z,6.50
2024-01-20T17:17:33.522Z,6.50
2024-01-20T17:21:17.422Z,6.40
2024-01-20T17:24:59.654Z,6.40
2024-01-20T17:28:42.083Z,6.30
2024-01-20T17:32:24.124Z,6.30
2024-01-20T17:36:06.400Z,6.30
2024-01-20T17:39:49.853Z,6.30
2024-01-20T17:43:31.889Z,6.30
2024-01-20T17:47:15.066Z,6.20
2024-01-20T17:50:57.109Z,6.20
2024-01-20T17:54:39.339Z,6.20
2024-01-20T17:58:21.404Z,6.20
2024-01-20T18:02:06.971Z,6.20
2024-01-20T18:05:49.112Z,6.20
2024-01-20T18:09:31.979Z,6.20
2024-01-20T18:13:14.045Z,6.10
2024-01-20T18:16:56.782Z,6.10
2024-01-20T18:20:38.789Z,6.10
2024-01-20T18:24:20.915Z,6.10
2024-01-20T18:28:05.492Z,6.10
2024-01-20T18:31:47.553Z,6.10
2024-01-20T18:35:29.563Z,6.10
2024-01-20T18:39:11.615Z,6.00
2024-01-20T18:42:53.729Z,6.00
2024-01-20T18:46:35.720Z,6.00
2024-01-20T18:50:17.820Z,6.00
2024-01-20T18:53:59.782Z,6.00
2024-01-20T18:57:42.242Z,6.00
2024-01-20T19:01:26.392Z,6.00
2024-01-20T19:05:08.693Z,6.00
2024-01-20T19:08:51.799Z,6.00
2024-01-20T19:12:33.869Z,6.00
2024-01-20T19:16:16.070Z,5.90
2024-01-20T19:19:58.092Z,5.90
2024-01-20T19:23:46.331Z,5.90
2024-01-20T19:27:31.474Z,5.90
2024-01-20T19:31:14.752Z,5.90
2024-01-20T19:34:56.784Z,5.90
2024-01-20T19:38:38.803Z,5.90
2024-01-20T19:42:20.988Z,5.90
2024-01-20T19:46:03.788Z,5.90
2024-01-20T19:49:46.041Z,5.90
2024-01-20T19:53:28.030Z,6.00
2024-01-20T19:57:10.034Z,5.90
2024-01-20T20:00:52.246Z,6.00
2024-01-20T20:04:34.544Z,6.00
2024-01-20T20:08:23.792Z,6.00
2024-01-20T20:12:09.620Z,5.90
2024-01-20T20:15:52.159Z,6.00
2024-01-20T20:19:34.306Z,5.90
2024-01-20T20:23:16.518Z,5.90
2024-01-20T20:26:58.475Z,5.90
2024-01-20T20:30:40.546Z,5.90
2024-01-20T20:34:22.959Z,5.90
2024-01-20T20:38:05.605Z,6.00
2024-01-20T20:41:49.417Z,6.00
2024-01-20T20:45:31.519Z,6.00
2024-01-20T20:49:15.051Z,5.90
2024-01-20T20:52:57.152Z,5.90
2024-01-20T20:56:39.187Z,5.90
2024-01-20T21:00:21.266Z,5.90
2024-01-20T21:04:07.056Z,5.90
2024-01-20T21:07:49.671Z,6.00
2024-01-20T21:11:31.677Z,6.10
2024-01-20T21:15:14.676Z,6.10
2024-01-20T21:19:00.264Z,6.10
2024-01-20T21:22:44.502Z,6.20
2024-01-20T21:26:26.499Z,6.20
2024-01-20T21:30:09.062Z,6.20
2024-01-20T21:33:51.219Z,6.30
2024-01-20T21:37:33.393Z,6.10
2024-01-20T21:41:16.138Z,6.00
2024-01-20T21:45:00.941Z,5.90
2024-01-20T21:48:44.189Z,5.80
2024-01-20T21:52:26.324Z,5.80
2024-01-20T21:56:09.047Z,5.70
2024-01-20T21:59:51.079Z,5.70
2024-01-20T22:03:36.154Z,5.70
2024-01-20T22:07:18.197Z,5.70
2024-01-20T22:11:00.205Z,5.60
2024-01-20T22:14:42.170Z,5.60
2024-01-20T22:18:24.287Z,5.60
2024-01-20T22:22:06.432Z,5.50
2024-01-20T22:25:48.472Z,5.60
2024-01-20T22:29:32.061Z,5.50
2024-01-20T22:33:15.516Z,5.50
2024-01-20T22:36:57.900Z,5.60
2024-01-20T22:40:40.245Z,5.50
2024-01-20T22:44:22.360Z,5.50
2024-01-20T22:48:04.763Z,5.50
2024-01-20T22:51:47.736Z,5.60
2024-01-20T22:55:29.896Z,5.60
2024-01-20T22:59:11.968Z,5.60
2024-01-20T23:02:57.739Z,5.60
2024-01-20T23:06:39.777Z,5.60
2024-01-20T23:10:21.796Z,5.60
2024-01-20T23:14:03.794Z,5.60
2024-01-20T23:17:45.794Z,5.60
2024-01-20T23:21:27.864Z,5.70
2024-01-20T23:25:10.607Z,5.70
2024-01-20T23:28:53.107Z,5.70
2024-01-20T23:32:35.470Z,5.70
2024-01-20T23:36:17.576Z,5.70
2024-01-20T23:39:59.630Z,5.70
2024-01-20T23:43:43.080Z,5.70
2024-01-20T23:47:26.607Z,5.70
2024-01-20T23:51:08.652Z,5.80
2024-01-20T23:54:50.766Z,5.80
2024-01-20T23:58:32.963Z,5.80
